South Barre, Massachusetts
Current Conditions -  °F | °C
As of 12:54 PM on Wednesday 26 Nov 2014 (Local Time) from KORH Reporting Station
Light Snow Light Snow  
Wind Chill: 22°   Ceiling: 200
Heat Index: 31°   Visibility: 0.75mi
Dew Point: 31°   Wind: 10mph
Humidity: 100%   Direction: 20°NNE
Pressure: 30.01"   Gusts: 22mph
Location:  42.39°N, 72.1°W
Report Text: KORH 261754Z 02009G19KT 3/4SM R11/4000V5000FT -SN BR OVC002 M01/M01 A3001 RMK AO2 SLP174 P0009 6//// T10061006 10039 21006 58033
Loading
Personal Weather Stations






























Interactive Weather Map New forecast layout! Learn more

10-Day Weather Forecast

Advertisements
Track Severe Weather on mobile